createdAt,value
2022-11-26T00:01:17.606Z,63.88
2022-11-26T00:03:45.770Z,64.32
2022-11-26T00:06:32.181Z,64.32
2022-11-26T00:09:00.755Z,64.67
2022-11-26T00:11:28.115Z,64.43
2022-11-26T00:13:55.450Z,64.89
2022-11-26T00:16:23.327Z,64.95
2022-11-26T00:18:50.740Z,64.89
2022-11-26T00:21:22.438Z,64.63
2022-11-26T00:23:50.780Z,64.28
2022-11-26T00:26:21.313Z,64.47
2022-11-26T00:28:51.578Z,64.34
2022-11-26T00:31:19.346Z,64.13
2022-11-26T00:33:47.197Z,64.57
2022-11-26T00:36:21.829Z,64.45
2022-11-26T00:38:55.142Z,64.32
2022-11-26T00:41:24.920Z,64.51
2022-11-26T00:43:52.558Z,64.74
2022-11-26T00:46:21.111Z,64.70
2022-11-26T00:48:48.759Z,64.48
2022-11-26T00:51:25.111Z,64.62
2022-11-26T00:53:56.701Z,64.16
2022-11-26T00:56:24.260Z,64.22
2022-11-26T00:58:51.574Z,64.43
2022-11-26T01:01:23.754Z,64.46
2022-11-26T01:03:51.545Z,64.38
2022-11-26T01:06:26.550Z,64.08
2022-11-26T01:08:54.157Z,63.96
2022-11-26T01:11:22.736Z,63.71
2022-11-26T01:13:51.370Z,63.70
2022-11-26T01:16:30.944Z,64.36
2022-11-26T01:18:59.600Z,64.17
2022-11-26T01:21:30.380Z,64.35
2022-11-26T01:23:57.730Z,64.28
2022-11-26T01:26:31.883Z,64.39
2022-11-26T01:28:59.441Z,64.08
2022-11-26T01:31:28.450Z,64.14
2022-11-26T01:33:56.245Z,63.77
2022-11-26T01:36:33.885Z,64.21
2022-11-26T01:39:22.495Z,64.31
2022-11-26T01:41:58.983Z,64.12
2022-11-26T01:44:29.159Z,63.74
2022-11-26T01:46:57.706Z,63.96
2022-11-26T01:49:28.273Z,63.42
2022-11-26T01:52:34.142Z,64.07
2022-11-26T01:55:01.734Z,64.26
2022-11-26T01:57:29.913Z,64.15
2022-11-26T02:00:01.474Z,63.90
2022-11-26T02:02:29.155Z,64.13
2022-11-26T02:05:09.504Z,63.97
2022-11-26T02:07:37.040Z,63.63
2022-11-26T02:10:04.963Z,63.41
2022-11-26T02:12:32.513Z,63.51
2022-11-26T02:14:59.874Z,63.55
2022-11-26T02:17:41.874Z,63.92
2022-11-26T02:20:24.396Z,63.97
2022-11-26T02:22:54.876Z,63.76
2022-11-26T02:25:40.426Z,64.24
2022-11-26T02:28:49.750Z,63.30
2022-11-26T02:31:47.971Z,63.70
2022-11-26T02:34:23.571Z,63.77
2022-11-26T02:36:57.749Z,63.94
2022-11-26T02:39:27.145Z,64.17
2022-11-26T02:42:00.073Z,63.82
2022-11-26T02:44:46.299Z,63.57
2022-11-26T02:47:16.751Z,63.75
2022-11-26T02:49:46.312Z,63.77
2022-11-26T02:52:14.241Z,63.69
2022-11-26T02:54:42.745Z,64.07
2022-11-26T02:57:14.054Z,63.23
2022-11-26T02:59:42.154Z,63.08
2022-11-26T03:02:14.856Z,63.67
2022-11-26T03:04:43.403Z,64.02
2022-11-26T03:07:13.044Z,63.79
2022-11-26T03:09:56.245Z,63.63
2022-11-26T03:12:24.283Z,63.51
2022-11-26T03:14:51.955Z,63.79
2022-11-26T03:17:19.328Z,63.69
2022-11-26T03:19:47.396Z,63.84
2022-11-26T03:22:15.658Z,63.85
2022-11-26T03:24:43.095Z,63.85
2022-11-26T03:27:10.860Z,64.12
2022-11-26T03:29:38.285Z,64.43
2022-11-26T03:32:05.811Z,64.39
2022-11-26T03:34:33.470Z,64.34
2022-11-26T03:37:00.760Z,64.66
2022-11-26T03:39:28.106Z,64.09
2022-11-26T03:41:55.756Z,64.04
2022-11-26T03:44:23.069Z,64.05
2022-11-26T03:46:50.443Z,64.70
2022-11-26T03:49:18.033Z,64.40
2022-11-26T03:51:45.381Z,64.41
2022-11-26T03:54:12.675Z,64.95
2022-11-26T03:56:40.258Z,64.91
2022-11-26T03:59:07.680Z,64.68
2022-11-26T04:01:35.292Z,64.33
2022-11-26T04:04:03.058Z,64.38
2022-11-26T04:06:30.430Z,64.64
2022-11-26T04:08:57.766Z,64.51
2022-11-26T04:11:25.395Z,64.23
2022-11-26T04:13:52.750Z,64.27
2022-11-26T04:16:20.936Z,64.69
2022-11-26T04:18:48.514Z,64.07
2022-11-26T04:21:15.863Z,64.25
2022-11-26T04:23:43.211Z,64.03
2022-11-26T04:26:10.795Z,63.94
2022-11-26T04:28:38.106Z,64.36
2022-11-26T04:31:05.728Z,64.45
2022-11-26T04:33:33.403Z,64.33
2022-11-26T04:36:01.135Z,63.96
2022-11-26T04:38:28.422Z,64.26
2022-11-26T04:40:56.095Z,64.90
2022-11-26T04:43:23.402Z,64.57
2022-11-26T04:45:50.787Z,64.92
2022-11-26T04:48:18.731Z,64.49
2022-11-26T04:50:46.146Z,64.68
2022-11-26T04:53:13.487Z,64.95
2022-11-26T04:55:41.079Z,65.04
2022-11-26T04:58:08.392Z,65.53
2022-11-26T05:00:35.814Z,65.29
2022-11-26T05:03:03.493Z,64.95
2022-11-26T05:05:30.878Z,65.12
2022-11-26T05:07:58.230Z,64.87
2022-11-26T05:10:25.883Z,65.41
2022-11-26T05:12:53.218Z,65.61
2022-11-26T05:15:20.564Z,65.51
2022-11-26T05:17:48.256Z,65.56
2022-11-26T05:20:15.622Z,65.68
2022-11-26T05:22:43.194Z,65.69
2022-11-26T05:25:10.794Z,65.62
2022-11-26T05:27:38.123Z,65.62
2022-11-26T05:30:07.343Z,65.31
2022-11-26T05:32:34.999Z,65.24
2022-11-26T05:35:02.338Z,65.77
2022-11-26T05:37:29.643Z,66.11
2022-11-26T05:39:57.185Z,65.60
2022-11-26T05:42:24.502Z,65.77
2022-11-26T05:44:51.982Z,65.70
2022-11-26T05:47:19.600Z,65.53
2022-11-26T05:49:46.898Z,65.86
2022-11-26T05:52:14.261Z,65.72
2022-11-26T05:54:41.947Z,65.02
2022-11-26T05:57:10.763Z,65.64
2022-11-26T05:59:38.066Z,66.19
2022-11-26T06:02:05.889Z,65.39
2022-11-26T06:04:33.612Z,65.25
2022-11-26T06:07:00.882Z,65.50
2022-11-26T06:09:28.186Z,65.43
2022-11-26T06:11:55.795Z,65.36
2022-11-26T06:14:23.141Z,65.50
2022-11-26T06:16:50.543Z,65.25
2022-11-26T06:19:18.265Z,65.43
2022-11-26T06:21:45.873Z,65.79
2022-11-26T06:24:13.148Z,65.91
2022-11-26T06:26:40.783Z,65.90
2022-11-26T06:29:08.115Z,65.96
2022-11-26T06:31:35.515Z,65.87
2022-11-26T06:34:03.218Z,65.46
2022-11-26T06:36:30.565Z,65.69
2022-11-26T06:38:57.877Z,65.34
2022-11-26T06:41:25.454Z,65.33
2022-11-26T06:43:52.762Z,65.70
2022-11-26T06:46:20.191Z,65.40
2022-11-26T06:48:47.857Z,65.29
2022-11-26T06:51:16.264Z,65.54
2022-11-26T06:53:43.651Z,65.79
2022-11-26T06:56:18.019Z,65.72
2022-11-26T06:58:50.193Z,65.59
2022-11-26T07:01:21.245Z,65.71
2022-11-26T07:03:48.642Z,65.31
2022-11-26T07:06:21.061Z,65.20
2022-11-26T07:08:49.286Z,64.68
2022-11-26T07:11:17.553Z,64.81
2022-11-26T07:13:44.886Z,64.86
2022-11-26T07:16:12.754Z,64.22
2022-11-26T07:18:40.225Z,63.94
2022-11-26T07:21:09.891Z,64.68
2022-11-26T07:23:38.482Z,64.26
2022-11-26T07:26:07.383Z,64.37
2022-11-26T07:28:35.483Z,64.75
2022-11-26T07:31:05.124Z,64.49
2022-11-26T07:33:32.701Z,64.41
2022-11-26T07:36:01.389Z,64.74
2022-11-26T07:38:29.265Z,65.04
2022-11-26T07:41:06.437Z,64.89
2022-11-26T07:43:34.994Z,65.04
2022-11-26T07:46:04.343Z,75.47
2022-11-26T07:48:32.402Z,70.87
2022-11-26T07:51:01.149Z,69.74
2022-11-26T07:53:29.816Z,68.40
2022-11-26T07:55:57.431Z,68.07
2022-11-26T07:58:25.274Z,66.70
2022-11-26T08:00:54.810Z,66.17
2022-11-26T08:03:22.734Z,65.50
2022-11-26T08:05:50.109Z,64.74
2022-11-26T08:08:17.522Z,65.16
2022-11-26T08:10:45.155Z,65.14
2022-11-26T08:13:12.487Z,65.23
2022-11-26T08:15:39.790Z,64.20
2022-11-26T08:18:07.401Z,64.17
2022-11-26T08:20:34.721Z,64.48
2022-11-26T08:23:02.058Z,64.68
2022-11-26T08:25:29.678Z,65.45
2022-11-26T08:27:57.282Z,64.78
2022-11-26T08:30:24.618Z,64.72
2022-11-26T08:32:52.197Z,65.32
2022-11-26T08:35:19.528Z,65.44
2022-11-26T08:37:46.822Z,65.49
2022-11-26T08:40:14.583Z,65.02
2022-11-26T08:42:41.925Z,64.92
2022-11-26T08:45:09.497Z,64.80
2022-11-26T08:47:37.351Z,64.53
2022-11-26T08:50:05.586Z,64.63
2022-11-26T08:52:32.885Z,64.99
2022-11-26T08:55:00.489Z,65.06
2022-11-26T08:57:27.921Z,65.64
2022-11-26T08:59:56.068Z,64.85
2022-11-26T09:02:23.690Z,64.69
2022-11-26T09:04:51.072Z,63.97
2022-11-26T09:07:18.520Z,64.07
2022-11-26T09:09:46.242Z,63.73
2022-11-26T09:12:13.551Z,63.95
2022-11-26T09:14:41.858Z,64.94
2022-11-26T09:17:11.465Z,66.14
2022-11-26T09:19:39.316Z,66.17
2022-11-26T09:22:06.635Z,66.98
2022-11-26T09:24:34.343Z,66.74
2022-11-26T09:27:07.479Z,66.07
2022-11-26T09:29:36.086Z,65.58
2022-11-26T09:34:52.589Z,65.72
2022-11-26T09:37:19.939Z,66.13
2022-11-26T09:39:47.370Z,66.06
2022-11-26T09:42:26.623Z,65.42
2022-11-26T09:45:02.956Z,66.13
2022-11-26T09:47:42.013Z,66.45
2022-11-26T09:50:15.318Z,66.08
2022-11-26T09:53:04.389Z,65.57
2022-11-26T09:55:32.579Z,65.32
2022-11-26T09:58:16.357Z,64.76
2022-11-26T10:00:49.392Z,64.21
2022-11-26T10:03:18.328Z,64.18
2022-11-26T10:06:14.508Z,64.13
2022-11-26T10:08:51.413Z,63.77
2022-11-26T10:11:26.012Z,62.77
2022-11-26T10:14:15.573Z,62.64
2022-11-26T10:16:55.218Z,62.48
2022-11-26T10:19:25.154Z,62.12
2022-11-26T10:21:59.821Z,62.83
2022-11-26T10:24:37.061Z,62.56
2022-11-26T10:27:12.606Z,62.32
2022-11-26T10:29:42.502Z,62.11
2022-11-26T10:32:16.427Z,61.73
2022-11-26T10:34:52.492Z,61.68
2022-11-26T10:37:22.195Z,61.91
2022-11-26T10:39:52.917Z,61.56
2022-11-26T10:42:24.486Z,62.05
2022-11-26T10:44:53.293Z,62.09
2022-11-26T10:47:28.887Z,61.82
2022-11-26T10:53:21.289Z,64.42
2022-11-26T10:55:49.068Z,64.63
2022-11-26T10:58:19.810Z,62.35
2022-11-26T11:00:49.943Z,62.32
2022-11-26T11:03:59.342Z,64.04
2022-11-26T11:06:19.742Z,70.65
2022-11-26T11:08:49.468Z,63.27
2022-11-26T11:11:25.412Z,61.79
2022-11-26T11:13:53.554Z,61.61
2022-11-26T11:16:27.671Z,61.65
2022-11-26T11:19:00.904Z,61.76
2022-11-26T11:21:30.902Z,61.83
2022-11-26T11:24:17.246Z,63.06
2022-11-26T11:26:53.503Z,61.92
2022-11-26T11:29:39.462Z,61.35
2022-11-26T11:32:35.676Z,61.78
2022-11-26T11:35:26.151Z,61.45
2022-11-26T11:37:55.250Z,61.97
2022-11-26T11:40:27.396Z,61.55
2022-11-26T11:43:00.196Z,62.08
2022-11-26T11:45:34.897Z,63.82
2022-11-26T11:48:22.133Z,64.46
2022-11-26T11:50:57.017Z,64.64
2022-11-26T11:53:27.211Z,64.43
2022-11-26T11:56:27.259Z,65.57
2022-11-26T11:59:15.775Z,66.17
2022-11-26T12:01:55.243Z,66.11
2022-11-26T12:04:37.791Z,65.35
2022-11-26T12:07:34.629Z,64.83
2022-11-26T12:10:16.845Z,64.58
2022-11-26T12:12:50.831Z,64.17
2022-11-26T12:15:25.437Z,65.17
2022-11-26T12:18:14.123Z,64.05
2022-11-26T12:20:47.824Z,63.45
2022-11-26T12:23:33.378Z,65.48
2022-11-26T12:26:19.889Z,66.92
2022-11-26T12:29:02.270Z,66.12
2022-11-26T12:31:34.353Z,67.34
2022-11-26T12:34:08.717Z,65.86
2022-11-26T12:36:45.776Z,65.12
2022-11-26T12:39:20.497Z,65.20
2022-11-26T12:41:58.878Z,65.45
2022-11-26T12:44:34.639Z,65.31
2022-11-26T12:47:14.510Z,64.53
2022-11-26T12:50:02.090Z,64.33
2022-11-26T12:52:58.961Z,64.29
2022-11-26T12:55:33.313Z,64.72
2022-11-26T12:58:17.348Z,64.09
2022-11-26T13:00:44.754Z,63.50
2022-11-26T13:03:18.323Z,63.43
2022-11-26T13:06:39.423Z,63.39
2022-11-26T13:09:32.474Z,64.12
2022-11-26T13:12:14.175Z,65.02
2022-11-26T13:14:56.705Z,65.04
2022-11-26T13:17:43.087Z,66.20
2022-11-26T13:20:42.109Z,67.32
2022-11-26T13:23:28.390Z,66.12
2022-11-26T13:26:06.195Z,65.79
2022-11-26T13:28:59.738Z,65.76
2022-11-26T13:31:46.161Z,64.83
2022-11-26T13:34:38.916Z,66.73
2022-11-26T13:37:25.565Z,65.93
2022-11-26T13:40:05.453Z,65.86
2022-11-26T13:43:04.021Z,66.12
2022-11-26T13:45:50.061Z,65.74
2022-11-26T13:48:36.535Z,66.30
2022-11-26T13:51:13.754Z,66.05
2022-11-26T13:53:47.490Z,66.29
2022-11-26T13:56:16.154Z,65.97
2022-11-26T13:58:48.757Z,65.45
2022-11-26T14:01:29.517Z,65.40
2022-11-26T14:03:57.701Z,66.57
2022-11-26T14:06:27.981Z,65.99
2022-11-26T14:08:56.073Z,67.20
2022-11-26T14:11:45.843Z,67.59
2022-11-26T14:14:25.221Z,66.44
2022-11-26T14:17:11.667Z,66.65
2022-11-26T14:19:45.214Z,66.96
2022-11-26T14:22:21.891Z,67.34
2022-11-26T14:24:51.917Z,66.53
2022-11-26T14:27:21.877Z,67.22
2022-11-26T14:30:15.401Z,66.85
2022-11-26T14:32:59.825Z,66.33
2022-11-26T14:35:36.036Z,66.60
2022-11-26T14:38:06.188Z,66.42
2022-11-26T14:40:38.210Z,66.84
2022-11-26T14:43:06.994Z,66.52
2022-11-26T14:45:34.622Z,65.81
2022-11-26T14:48:03.910Z,66.29
2022-11-26T14:50:33.443Z,66.16
2022-11-26T14:53:03.755Z,66.63
2022-11-26T14:55:31.885Z,66.41
2022-11-26T14:57:59.303Z,67.31
2022-11-26T15:00:29.449Z,68.81
2022-11-26T15:02:57.216Z,66.92
2022-11-26T15:05:27.371Z,67.61
2022-11-26T15:07:59.580Z,66.73
2022-11-26T15:10:27.454Z,65.92
2022-11-26T15:12:56.430Z,65.25
2022-11-26T15:15:24.526Z,65.17
2022-11-26T15:17:55.096Z,65.22
2022-11-26T15:20:23.311Z,65.00
2022-11-26T15:22:52.314Z,65.33
2022-11-26T15:25:28.331Z,65.39
2022-11-26T15:27:55.917Z,65.44
2022-11-26T15:30:25.551Z,65.09
2022-11-26T15:33:04.320Z,68.52
2022-11-26T15:35:33.276Z,66.33
2022-11-26T15:38:00.676Z,65.27
2022-11-26T15:40:42.606Z,64.57
2022-11-26T15:43:23.439Z,64.40
2022-11-26T15:45:52.139Z,65.08
2022-11-26T15:48:28.092Z,65.06
2022-11-26T15:51:13.257Z,65.53
2022-11-26T15:53:45.857Z,65.86
2022-11-26T15:56:22.020Z,65.34
2022-11-26T15:58:53.112Z,66.03
2022-11-26T16:01:30.420Z,65.52
2022-11-26T16:04:04.320Z,66.25
2022-11-26T16:06:36.133Z,66.64
2022-11-26T16:09:12.597Z,66.29
2022-11-26T16:11:56.868Z,65.66
2022-11-26T16:14:39.897Z,65.67
2022-11-26T16:17:17.167Z,65.80
2022-11-26T16:19:51.057Z,65.33
2022-11-26T16:22:21.682Z,65.33
2022-11-26T16:25:07.529Z,65.81
2022-11-26T16:27:34.888Z,65.72
2022-11-26T16:30:07.555Z,65.35
2022-11-26T16:32:34.813Z,65.49
2022-11-26T16:35:17.432Z,65.48
2022-11-26T16:37:49.593Z,65.48
2022-11-26T16:40:19.165Z,65.20
2022-11-26T16:42:46.920Z,65.76
2022-11-26T16:45:14.790Z,65.57
2022-11-26T16:47:45.040Z,66.12
2022-11-26T16:50:24.361Z,65.92
2022-11-26T16:52:53.041Z,66.09
2022-11-26T16:55:28.155Z,65.56
2022-11-26T16:57:58.422Z,66.73
2022-11-26T17:00:27.083Z,66.46
2022-11-26T17:02:54.806Z,66.11
2022-11-26T17:05:22.991Z,74.40
2022-11-26T17:07:54.919Z,69.73
2022-11-26T17:10:28.513Z,67.41
2022-11-26T17:12:56.455Z,66.04
2022-11-26T17:15:24.131Z,66.18
2022-11-26T17:18:02.218Z,66.50
2022-11-26T17:20:29.774Z,66.93
2022-11-26T17:22:57.070Z,67.10
2022-11-26T17:25:24.440Z,66.71
2022-11-26T17:27:51.997Z,67.68
2022-11-26T17:30:21.586Z,67.26
2022-11-26T17:32:49.534Z,67.44
2022-11-26T17:35:17.650Z,67.04
2022-11-26T17:37:45.338Z,66.76
2022-11-26T17:40:21.350Z,67.14
2022-11-26T17:42:49.832Z,67.70
2022-11-26T17:45:18.136Z,67.42
2022-11-26T17:47:45.915Z,67.00
2022-11-26T17:50:24.636Z,66.46
2022-11-26T17:52:53.107Z,66.42
2022-11-26T17:55:22.738Z,67.37
2022-11-26T17:57:50.328Z,66.68
2022-11-26T18:00:25.708Z,66.12
2022-11-26T18:02:53.397Z,66.11
2022-11-26T18:05:20.859Z,66.46
2022-11-26T18:07:49.846Z,66.33
2022-11-26T18:10:19.790Z,67.35
2022-11-26T18:12:47.783Z,67.39
2022-11-26T18:15:26.165Z,67.12
2022-11-26T18:17:55.569Z,66.96
2022-11-26T18:20:26.003Z,67.19
2022-11-26T18:22:55.152Z,67.07
2022-11-26T18:25:22.807Z,66.76
2022-11-26T18:27:50.238Z,67.70
2022-11-26T18:30:18.138Z,66.87
2022-11-26T18:32:46.125Z,66.42
2022-11-26T18:35:13.443Z,66.21
2022-11-26T18:37:41.334Z,65.91
2022-11-26T18:40:12.307Z,66.04
2022-11-26T18:42:39.682Z,66.00
2022-11-26T18:45:09.226Z,67.33
2022-11-26T18:47:37.531Z,66.16
2022-11-26T18:50:05.756Z,66.37
2022-11-26T18:52:33.709Z,66.78
2022-11-26T18:55:04.595Z,66.87
2022-11-26T18:57:32.229Z,66.86
2022-11-26T18:59:59.833Z,66.50
2022-11-26T19:02:27.209Z,66.87
2022-11-26T19:04:54.617Z,66.44
2022-11-26T19:07:22.294Z,66.91
2022-11-26T19:09:49.771Z,67.53
2022-11-26T19:12:17.058Z,67.21
2022-11-26T19:14:44.664Z,66.66
2022-11-26T19:17:12.412Z,66.70
2022-11-26T19:19:40.102Z,66.20
2022-11-26T19:22:07.831Z,66.09
2022-11-26T19:24:35.119Z,65.99
2022-11-26T19:27:02.374Z,65.63
2022-11-26T19:29:29.903Z,65.69
2022-11-26T19:31:57.248Z,65.46
2022-11-26T19:34:24.543Z,65.46
2022-11-26T19:36:56.554Z,65.53
2022-11-26T19:39:23.930Z,65.49
2022-11-26T19:41:51.710Z,65.17
2022-11-26T19:44:19.059Z,65.19
2022-11-26T19:46:48.094Z,65.05
2022-11-26T19:49:15.746Z,65.03
2022-11-26T19:51:43.423Z,65.29
2022-11-26T19:54:10.832Z,65.11
2022-11-26T19:56:38.509Z,64.99
2022-11-26T19:59:05.898Z,65.31
2022-11-26T20:01:34.267Z,65.11
2022-11-26T20:04:04.631Z,65.67
2022-11-26T20:06:33.744Z,65.53
2022-11-26T20:09:01.550Z,65.84
2022-11-26T20:11:29.304Z,65.39
2022-11-26T20:13:57.483Z,66.16
2022-11-26T20:16:29.336Z,66.37
2022-11-26T20:18:58.185Z,66.63
2022-11-26T20:21:27.758Z,66.67
2022-11-26T20:23:57.539Z,66.72
2022-11-26T20:26:33.763Z,66.29
2022-11-26T20:29:04.552Z,66.08
2022-11-26T20:31:32.770Z,66.14
2022-11-26T20:34:04.042Z,65.58
2022-11-26T20:36:31.929Z,65.89
2022-11-26T20:39:01.492Z,65.59
2022-11-26T20:41:29.717Z,65.73
2022-11-26T20:43:59.390Z,65.53
2022-11-26T20:46:28.083Z,65.33
2022-11-26T20:48:56.373Z,65.14
2022-11-26T20:51:24.722Z,64.85
2022-11-26T20:53:52.594Z,65.00
2022-11-26T20:56:21.449Z,64.92
2022-11-26T20:58:50.565Z,65.28
2022-11-26T21:01:24.860Z,65.32
2022-11-26T21:03:53.407Z,65.08
2022-11-26T21:06:29.070Z,64.80
2022-11-26T21:08:59.697Z,64.47
2022-11-26T21:11:27.253Z,64.08
2022-11-26T21:13:54.695Z,64.51
2022-11-26T21:16:23.351Z,64.22
2022-11-26T21:18:54.115Z,64.80
2022-11-26T21:21:22.724Z,64.33
2022-11-26T21:23:50.113Z,64.42
2022-11-26T21:26:20.658Z,64.33
2022-11-26T21:28:53.799Z,64.52
2022-11-26T21:31:21.610Z,65.16
2022-11-26T21:34:00.927Z,64.87
2022-11-26T21:36:29.849Z,64.91
2022-11-26T21:38:57.687Z,64.76
2022-11-26T21:41:25.471Z,64.59
2022-11-26T21:43:52.880Z,64.72
2022-11-26T21:46:24.672Z,64.68
2022-11-26T21:48:53.441Z,64.93
2022-11-26T21:51:21.941Z,64.71
2022-11-26T21:53:50.036Z,64.93
2022-11-26T21:56:25.337Z,64.30
2022-11-26T21:58:53.185Z,64.11
2022-11-26T22:01:23.414Z,64.74
2022-11-26T22:03:52.850Z,64.83
2022-11-26T22:06:21.724Z,65.25
2022-11-26T22:08:49.639Z,64.85
2022-11-26T22:11:20.484Z,65.38
2022-11-26T22:13:47.843Z,65.06
2022-11-26T22:16:17.051Z,64.93
2022-11-26T22:18:45.555Z,64.82
2022-11-26T22:21:17.110Z,64.54
2022-11-26T22:23:45.494Z,64.85
2022-11-26T22:26:13.584Z,64.77
2022-11-26T22:28:41.231Z,64.94
2022-11-26T22:31:14.359Z,64.24
2022-11-26T22:33:41.760Z,64.78
2022-11-26T22:36:09.391Z,64.43
2022-11-26T22:38:37.886Z,65.93
2022-11-26T22:41:07.629Z,65.24
2022-11-26T22:43:35.542Z,64.92
2022-11-26T22:46:07.861Z,65.26
2022-11-26T22:48:35.793Z,65.17
2022-11-26T22:51:03.420Z,64.90
2022-11-26T22:53:33.214Z,65.22
2022-11-26T22:56:02.911Z,64.80
2022-11-26T22:58:31.163Z,64.74
2022-11-26T23:01:04.393Z,64.67
2022-11-26T23:03:34.189Z,64.33
2022-11-26T23:06:08.571Z,64.70
2022-11-26T23:08:36.926Z,64.88
2022-11-26T23:11:25.371Z,65.12
2022-11-26T23:13:53.486Z,64.55
2022-11-26T23:16:23.149Z,64.83
2022-11-26T23:18:51.421Z,64.32
2022-11-26T23:21:27.591Z,65.08
2022-11-26T23:23:55.169Z,64.60
2022-11-26T23:26:27.399Z,65.15
2022-11-26T23:28:59.172Z,65.01
2022-11-26T23:31:28.896Z,64.94
2022-11-26T23:33:56.506Z,64.75
2022-11-26T23:36:24.576Z,65.32
2022-11-26T23:38:52.617Z,64.89
2022-11-26T23:41:19.965Z,64.74
2022-11-26T23:43:47.603Z,64.53
2022-11-26T23:46:26.907Z,64.21
2022-11-26T23:48:54.771Z,64.56
2022-11-26T23:51:29.385Z,64.51
2022-11-26T23:53:56.714Z,64.25
2022-11-26T23:56:27.622Z,64.50
2022-11-26T23:58:59.072Z,64.65
